createdAt,value
2022-10-22T00:02:09.879Z,100668.97
2022-10-22T00:05:12.952Z,100669.81
2022-10-22T00:08:17.217Z,100668.03
2022-10-22T00:11:20.762Z,100662.94
2022-10-22T00:14:23.590Z,100661.16
2022-10-22T00:17:26.690Z,100666.38
2022-10-22T00:20:29.314Z,100670.72
2022-10-22T00:23:32.186Z,100668.16
2022-10-22T00:26:35.041Z,100673.38
2022-10-22T00:29:37.939Z,100666.44
2022-10-22T00:32:40.752Z,100660.28
2022-10-22T00:35:45.405Z,100661.22
2022-10-22T00:38:49.086Z,100669.09
2022-10-22T00:41:54.601Z,100660.50
2022-10-22T00:45:08.350Z,100641.38
2022-10-22T00:48:20.955Z,100657.00
2022-10-22T00:51:27.764Z,100662.34
2022-10-22T00:54:30.765Z,100658.91
2022-10-22T00:57:34.937Z,100651.97
2022-10-22T01:00:38.460Z,100651.91
2022-10-22T01:03:41.107Z,100655.41
2022-10-22T01:06:43.875Z,100641.38
2022-10-22T01:10:14.661Z,100633.31
2022-10-22T01:14:04.700Z,100640.09
2022-10-22T01:17:24.997Z,100639.91
2022-10-22T01:20:55.420Z,100650.28
2022-10-22T01:24:27.231Z,100650.97
2022-10-22T01:27:36.184Z,100649.06
2022-10-22T01:30:40.334Z,100655.75
2022-10-22T01:33:51.339Z,100650.44
2022-10-22T01:36:55.806Z,100654.56
2022-10-22T01:40:01.955Z,100657.91
2022-10-22T01:43:07.069Z,100670.63
2022-10-22T01:46:11.665Z,100675.72
2022-10-22T01:49:14.316Z,100682.50
2022-10-22T01:52:26.230Z,100676.28
2022-10-22T01:55:43.162Z,100674.16
2022-10-22T01:58:55.911Z,100677.31
2022-10-22T02:02:10.812Z,100662.25
2022-10-22T02:05:30.269Z,100652.81
2022-10-22T02:08:36.580Z,100634.00
2022-10-22T02:11:41.796Z,100627.22
2022-10-22T02:14:45.697Z,100618.62
2022-10-22T02:17:50.745Z,100617.03
2022-10-22T02:20:54.744Z,100621.41
2022-10-22T02:23:57.753Z,100617.88
2022-10-22T02:27:15.406Z,100612.53
2022-10-22T02:30:21.382Z,100618.69
2022-10-22T02:33:29.966Z,100639.53
2022-10-22T02:36:33.064Z,100645.56
2022-10-22T02:39:38.551Z,100643.59
2022-10-22T02:42:42.517Z,100649.44
2022-10-22T02:45:47.666Z,100652.94
2022-10-22T02:48:50.681Z,100650.00
2022-10-22T02:51:53.305Z,100651.66
2022-10-22T02:54:55.956Z,100654.31
2022-10-22T02:57:58.676Z,100655.25
2022-10-22T03:01:02.053Z,100652.66
2022-10-22T03:04:05.522Z,100659.66
2022-10-22T03:07:10.090Z,100650.50
2022-10-22T03:10:13.613Z,100654.75
2022-10-22T03:13:18.071Z,100644.16
2022-10-22T03:16:20.639Z,100635.16
2022-10-22T03:19:24.860Z,100629.81
2022-10-22T03:22:31.931Z,100624.63
2022-10-22T03:25:35.963Z,100626.47
2022-10-22T03:28:41.462Z,100630.84
2022-10-22T03:31:45.120Z,100636.03
2022-10-22T03:34:48.481Z,100630.53
2022-10-22T03:37:51.824Z,100629.69
2022-10-22T03:40:54.508Z,100628.69
2022-10-22T03:43:58.051Z,100626.22
2022-10-22T03:47:02.739Z,100641.06
2022-10-22T03:50:06.446Z,100630.66
2022-10-22T03:53:10.694Z,100618.34
2022-10-22T03:56:13.710Z,100602.97
2022-10-22T03:59:16.496Z,100606.84
2022-10-22T04:02:19.417Z,100596.22
2022-10-22T04:05:23.485Z,100600.47
2022-10-22T04:08:26.137Z,100594.44
2022-10-22T04:11:28.959Z,100604.19
2022-10-22T04:14:32.955Z,100613.53
2022-10-22T04:17:37.038Z,100618.66
2022-10-22T04:20:41.870Z,100614.16
2022-10-22T04:23:51.048Z,100625.09
2022-10-22T04:26:55.832Z,100627.47
2022-10-22T04:29:59.259Z,100627.28
2022-10-22T04:33:06.374Z,100622.50
2022-10-22T04:39:22.556Z,100627.56
2022-10-22T04:42:25.666Z,100619.84
2022-10-22T04:45:28.838Z,100618.75
2022-10-22T04:48:31.751Z,100620.94
2022-10-22T04:51:34.184Z,100630.37
2022-10-22T04:54:36.954Z,100632.09
2022-10-22T04:57:40.365Z,100624.53
2022-10-22T05:00:45.039Z,100632.25
2022-10-22T05:03:58.275Z,100621.84
2022-10-22T05:07:02.090Z,100610.22
2022-10-22T05:10:10.071Z,100613.09
2022-10-22T05:13:13.660Z,100616.53
2022-10-22T05:16:18.243Z,100622.34
2022-10-22T05:19:26.056Z,100604.62
2022-10-22T05:22:30.451Z,100598.94
2022-10-22T05:25:40.054Z,100606.44
2022-10-22T05:28:45.520Z,100616.28
2022-10-22T05:31:50.351Z,100619.22
2022-10-22T05:34:56.038Z,100621.28
2022-10-22T05:38:02.575Z,100622.50
2022-10-22T05:41:10.983Z,100626.75
2022-10-22T05:44:15.811Z,100617.94
2022-10-22T05:47:18.553Z,100626.69
2022-10-22T05:50:21.924Z,100622.56
2022-10-22T05:53:26.149Z,100619.41
2022-10-22T05:56:32.111Z,100620.31
2022-10-22T05:59:35.800Z,100633.94
2022-10-22T06:02:39.494Z,100640.59
2022-10-22T06:05:47.080Z,100635.59
2022-10-22T06:08:56.346Z,100641.25
2022-10-22T06:12:00.500Z,100645.69
2022-10-22T06:15:05.132Z,100653.31
2022-10-22T06:18:10.102Z,100663.59
2022-10-22T06:21:16.167Z,100661.81
2022-10-22T06:24:20.038Z,100671.09
2022-10-22T06:27:24.067Z,100665.41
2022-10-22T06:30:27.319Z,100666.41
2022-10-22T06:33:34.156Z,100660.81
2022-10-22T06:36:43.765Z,100655.72
2022-10-22T06:39:49.382Z,100653.47
2022-10-22T06:42:53.036Z,100662.59
2022-10-22T06:46:00.881Z,100679.38
2022-10-22T06:49:06.252Z,100670.34
2022-10-22T06:52:11.280Z,100677.34
2022-10-22T06:55:16.051Z,100665.34
2022-10-22T06:58:19.555Z,100674.19
2022-10-22T07:01:28.455Z,100672.91
2022-10-22T07:04:38.048Z,100665.56
2022-10-22T07:07:40.985Z,100671.63
2022-10-22T07:10:45.188Z,100673.78
2022-10-22T07:13:51.024Z,100668.78
2022-10-22T07:16:59.099Z,100666.91
2022-10-22T07:20:05.980Z,100667.13
2022-10-22T07:23:09.305Z,100656.47
2022-10-22T07:26:24.991Z,100661.41
2022-10-22T07:29:35.283Z,100654.59
2022-10-22T07:32:46.966Z,100660.00
2022-10-22T07:35:52.012Z,100652.84
2022-10-22T07:38:57.658Z,100661.59
2022-10-22T07:42:04.342Z,100668.47
2022-10-22T07:45:08.536Z,100645.84
2022-10-22T07:48:12.905Z,100642.81
2022-10-22T07:51:16.767Z,100639.56
2022-10-22T07:54:22.201Z,100647.19
2022-10-22T07:57:33.073Z,100645.25
2022-10-22T08:00:43.228Z,100637.75
2022-10-22T08:03:46.673Z,100651.22
2022-10-22T08:06:52.094Z,100651.34
2022-10-22T08:09:55.497Z,100641.63
2022-10-22T08:13:00.200Z,100637.22
2022-10-22T08:16:04.260Z,100634.56
2022-10-22T08:27:31.313Z,100644.28
2022-10-22T08:30:38.682Z,100645.81
2022-10-22T08:33:42.571Z,100638.38
2022-10-22T08:36:46.055Z,100631.19
2022-10-22T08:39:51.097Z,100637.22
2022-10-22T08:43:30.983Z,100641.19
2022-10-22T08:46:56.043Z,100662.34
2022-10-22T08:50:01.083Z,100654.88
2022-10-22T08:53:12.684Z,100664.34
2022-10-22T08:56:16.524Z,100666.22
2022-10-22T08:59:56.083Z,100651.72
2022-10-22T09:03:10.648Z,100645.56
2022-10-22T09:06:29.029Z,100659.25
2022-10-22T09:09:40.989Z,100653.41
2022-10-22T09:12:47.114Z,100664.53
2022-10-22T09:15:58.939Z,100650.34
2022-10-22T09:19:25.043Z,100649.44
2022-10-22T09:22:55.865Z,100648.28
2022-10-22T09:26:02.037Z,100655.19
2022-10-22T09:29:07.262Z,100650.87
2022-10-22T09:32:11.974Z,100649.91
2022-10-22T09:35:15.442Z,100654.50
2022-10-22T09:38:23.389Z,100660.41
2022-10-22T09:41:33.104Z,100668.44
2022-10-22T09:44:42.713Z,100676.75
2022-10-22T09:48:01.404Z,100673.59
2022-10-22T09:51:20.530Z,100663.13
2022-10-22T09:54:27.992Z,100654.37
2022-10-22T09:57:40.935Z,100660.78
2022-10-22T10:00:55.137Z,100655.44
2022-10-22T10:04:09.387Z,100653.91
2022-10-22T10:07:24.055Z,100643.31
2022-10-22T10:10:49.198Z,100646.41
2022-10-22T10:14:07.031Z,100642.88
2022-10-22T10:17:16.314Z,100646.75
2022-10-22T10:20:54.523Z,100635.56
2022-10-22T10:24:11.536Z,100639.12
2022-10-22T10:27:59.502Z,100643.44
2022-10-22T10:31:34.110Z,100639.59
2022-10-22T10:35:06.308Z,100630.69
2022-10-22T10:38:37.078Z,100622.19
2022-10-22T10:42:22.972Z,100626.81
2022-10-22T10:45:55.652Z,100630.47
2022-10-22T10:49:36.048Z,100639.47
2022-10-22T10:52:57.055Z,100641.75
2022-10-22T10:56:40.497Z,100649.72
2022-10-22T11:00:10.112Z,100644.53
2022-10-22T11:03:27.044Z,100645.34
2022-10-22T11:06:35.248Z,100641.84
2022-10-22T11:09:48.320Z,100635.66
2022-10-22T11:12:57.280Z,100644.41
2022-10-22T11:16:22.489Z,100630.34
2022-10-22T11:19:51.537Z,100637.34
2022-10-22T11:23:19.679Z,100640.75
2022-10-22T11:26:37.664Z,100619.69
2022-10-22T11:29:52.066Z,100618.81
2022-10-22T11:33:03.075Z,100609.31
2022-10-22T11:36:09.022Z,100611.97
2022-10-22T11:39:49.068Z,100606.84
2022-10-22T11:43:05.231Z,100605.97
2022-10-22T11:46:28.730Z,100600.84
2022-10-22T11:49:47.035Z,100600.84
2022-10-22T11:53:06.170Z,100593.06
2022-10-22T11:56:15.038Z,100576.50
2022-10-22T11:59:42.255Z,100569.50
2022-10-22T12:02:46.035Z,100579.37
2022-10-22T12:06:14.038Z,100586.44
2022-10-22T12:09:19.994Z,100578.59
2022-10-22T12:12:26.049Z,100580.41
2022-10-22T12:15:29.780Z,100568.94
2022-10-22T12:18:48.349Z,100570.75
2022-10-22T12:22:26.364Z,100577.91
2022-10-22T12:25:36.087Z,100574.28
2022-10-22T12:28:40.808Z,100568.97
2022-10-22T12:31:51.145Z,100576.69
2022-10-22T12:34:56.449Z,100576.53
2022-10-22T12:38:12.426Z,100565.78
2022-10-22T12:41:17.246Z,100564.84
2022-10-22T12:44:23.047Z,100567.28
2022-10-22T12:47:32.210Z,100572.47
2022-10-22T12:50:41.401Z,100579.34
2022-10-22T12:53:56.952Z,100580.91
2022-10-22T12:57:02.053Z,100589.53
2022-10-22T13:00:23.157Z,100585.03
2022-10-22T13:03:34.028Z,100576.19
2022-10-22T13:06:45.883Z,100573.53
2022-10-22T13:10:02.066Z,100583.16
2022-10-22T13:13:36.091Z,100587.53
2022-10-22T13:16:40.005Z,100580.47
2022-10-22T13:20:05.483Z,100584.00
2022-10-22T13:23:24.596Z,100588.38
2022-10-22T13:26:37.717Z,100580.47
2022-10-22T13:29:42.607Z,100578.72
2022-10-22T13:33:04.237Z,100570.81
2022-10-22T13:36:11.961Z,100576.94
2022-10-22T13:39:22.345Z,100578.72
2022-10-22T13:42:28.606Z,100572.56
2022-10-22T13:45:32.022Z,100584.00
2022-10-22T13:48:37.242Z,100590.09
2022-10-22T13:51:44.232Z,100588.28
2022-10-22T13:54:47.761Z,100591.78
2022-10-22T13:57:53.685Z,100596.06
2022-10-22T14:01:10.651Z,100590.81
2022-10-22T14:04:15.776Z,100586.47
2022-10-22T14:07:23.111Z,100599.69
2022-10-22T14:10:29.151Z,100595.38
2022-10-22T14:13:35.109Z,100588.44
2022-10-22T14:16:42.069Z,100582.41
2022-10-22T14:19:51.032Z,100597.34
2022-10-22T14:22:57.481Z,100595.59
2022-10-22T14:26:06.035Z,100592.00
2022-10-22T14:29:11.855Z,100598.97
2022-10-22T14:32:21.503Z,100589.28
2022-10-22T14:35:34.440Z,100586.63
2022-10-22T14:38:45.100Z,100587.47
2022-10-22T14:41:52.068Z,100585.63
2022-10-22T14:45:03.969Z,100579.44
2022-10-22T14:48:16.178Z,100579.34
2022-10-22T14:51:25.081Z,100588.91
2022-10-22T14:54:34.217Z,100598.47
2022-10-22T14:57:46.266Z,100607.97
2022-10-22T15:00:50.114Z,100605.28
2022-10-22T15:04:00.197Z,100606.09
2022-10-22T15:07:10.096Z,100613.87
2022-10-22T15:10:15.021Z,100612.88
2022-10-22T15:13:24.956Z,100616.28
2022-10-22T15:16:28.722Z,100612.75
2022-10-22T15:19:36.202Z,100620.56
2022-10-22T15:22:40.362Z,100628.41
2022-10-22T15:25:44.758Z,100620.50
2022-10-22T15:28:57.090Z,100622.16
2022-10-22T15:32:11.083Z,100622.94
2022-10-22T15:35:15.037Z,100615.88
2022-10-22T15:38:33.569Z,100620.13
2022-10-22T15:41:40.220Z,100630.59
2022-10-22T15:44:45.192Z,100639.28
2022-10-22T15:47:51.977Z,100644.41
2022-10-22T15:50:58.149Z,100648.69
2022-10-22T15:54:10.149Z,100641.63
2022-10-22T15:57:20.161Z,100647.66
2022-10-22T16:00:27.375Z,100647.53
2022-10-22T16:03:36.047Z,100648.28
2022-10-22T16:06:46.310Z,100642.91
2022-10-22T16:10:01.689Z,100646.25
2022-10-22T16:13:06.043Z,100661.00
2022-10-22T16:16:12.066Z,100664.34
2022-10-22T16:19:19.054Z,100676.31
2022-10-22T16:22:32.251Z,100685.66
2022-10-22T16:25:40.120Z,100704.72
2022-10-22T16:28:51.058Z,100708.84
2022-10-22T16:32:03.052Z,100722.66
2022-10-22T16:35:11.625Z,100735.56
2022-10-22T16:38:20.315Z,100746.63
2022-10-22T16:41:35.174Z,100757.81
2022-10-22T16:44:39.023Z,100769.91
2022-10-22T16:47:47.034Z,100779.28
2022-10-22T16:50:58.085Z,100786.97
2022-10-22T16:54:11.343Z,100786.72
2022-10-22T16:57:19.600Z,100784.06
2022-10-22T17:00:29.493Z,100788.28
2022-10-22T17:03:35.069Z,100796.84
2022-10-22T17:06:42.034Z,100788.03
2022-10-22T17:09:52.058Z,100794.09
2022-10-22T17:13:02.454Z,100799.25
2022-10-22T17:16:12.028Z,100793.88
2022-10-22T17:19:25.275Z,100792.91
2022-10-22T17:22:34.474Z,100783.19
2022-10-22T17:25:51.113Z,100785.63
2022-10-22T17:28:56.659Z,100781.78
2022-10-22T17:32:11.969Z,100779.06
2022-10-22T17:35:20.286Z,100784.22
2022-10-22T17:38:29.199Z,100808.59
2022-10-22T17:41:39.899Z,100805.75
2022-10-22T17:44:47.065Z,100813.56
2022-10-22T17:47:54.249Z,100824.66
2022-10-22T17:50:59.412Z,100813.16
2022-10-22T17:54:07.372Z,100820.81
2022-10-22T17:57:23.094Z,100830.56
2022-10-22T18:00:32.514Z,100822.31
2022-10-22T18:03:43.453Z,100845.94
2022-10-22T18:06:50.572Z,100839.72
2022-10-22T18:09:55.019Z,100828.19
2022-10-22T18:12:58.698Z,100835.94
2022-10-22T18:16:12.992Z,100832.38
2022-10-22T18:19:25.999Z,100847.13
2022-10-22T18:22:36.966Z,100845.19
2022-10-22T18:25:46.971Z,100845.84
2022-10-22T18:28:54.081Z,100848.47
2022-10-22T18:32:13.266Z,100851.88
2022-10-22T18:35:28.416Z,100854.50
2022-10-22T18:38:36.048Z,100859.66
2022-10-22T18:41:39.737Z,100866.66
2022-10-22T18:44:48.988Z,100885.03
2022-10-22T18:48:00.351Z,100879.00
2022-10-22T18:51:11.200Z,100871.06
2022-10-22T18:54:23.146Z,100858.50
2022-10-22T18:57:29.559Z,100882.16
2022-10-22T19:00:37.098Z,100890.56
2022-10-22T19:03:56.964Z,100868.59
2022-10-22T19:07:03.056Z,100850.31
2022-10-22T19:10:13.954Z,100871.16
2022-10-22T19:13:19.687Z,100861.34
2022-10-22T19:16:24.314Z,100879.50
2022-10-22T19:19:30.055Z,100883.63
2022-10-22T19:22:34.043Z,100876.53
2022-10-22T19:25:46.089Z,100874.53
2022-10-22T19:29:03.147Z,100884.81
2022-10-22T19:32:13.762Z,100888.81
2022-10-22T19:35:18.242Z,100900.53
2022-10-22T19:38:24.014Z,100903.91
2022-10-22T19:41:36.095Z,100899.34
2022-10-22T19:44:57.272Z,100910.28
2022-10-22T19:48:01.182Z,100907.50
2022-10-22T19:51:18.003Z,100912.41
2022-10-22T19:54:23.054Z,100914.19
2022-10-22T19:57:28.154Z,100920.25
2022-10-22T20:00:35.167Z,100921.84
2022-10-22T20:03:42.914Z,100933.06
2022-10-22T20:06:56.972Z,100937.56
2022-10-22T20:10:06.929Z,100935.59
2022-10-22T20:13:15.014Z,100942.59
2022-10-22T20:16:24.389Z,100950.31
2022-10-22T20:19:31.034Z,100953.88
2022-10-22T20:22:35.998Z,100952.59
2022-10-22T20:25:44.071Z,100950.62
2022-10-22T20:28:56.360Z,100954.69
2022-10-22T20:32:08.744Z,100970.28
2022-10-22T20:35:16.650Z,100961.22
2022-10-22T20:38:19.783Z,100959.37
2022-10-22T20:41:25.335Z,100973.50
2022-10-22T20:44:38.751Z,100966.25
2022-10-22T20:47:51.406Z,100965.28
2022-10-22T20:51:00.701Z,100964.09
2022-10-22T20:54:06.435Z,100972.59
2022-10-22T20:57:09.721Z,100963.06
2022-10-22T21:00:14.008Z,100978.72
2022-10-22T21:03:17.559Z,100977.06
2022-10-22T21:06:25.042Z,100982.34
2022-10-22T21:09:28.998Z,100984.00
2022-10-22T21:12:32.336Z,100989.13
2022-10-22T21:15:42.947Z,100975.84
2022-10-22T21:18:46.978Z,100976.53
2022-10-22T21:21:49.738Z,100975.44
2022-10-22T21:24:52.752Z,100981.50
2022-10-22T21:27:55.739Z,100987.47
2022-10-22T21:30:59.148Z,100987.22
2022-10-22T21:34:02.542Z,100980.16
2022-10-22T21:37:05.647Z,100989.63
2022-10-22T21:40:08.757Z,100991.22
2022-10-22T21:43:12.972Z,101001.50
2022-10-22T21:46:24.142Z,100991.84
2022-10-22T21:49:27.316Z,100996.91
2022-10-22T21:52:30.055Z,100995.28
2022-10-22T21:55:38.027Z,101003.09
2022-10-22T21:58:41.086Z,100985.59
2022-10-22T22:01:44.271Z,100981.28
2022-10-22T22:04:48.021Z,100991.03
2022-10-22T22:07:50.691Z,100984.09
2022-10-22T22:11:01.004Z,100977.22
2022-10-22T22:14:03.936Z,100977.28
2022-10-22T22:17:07.624Z,100984.28
2022-10-22T22:20:11.917Z,100990.47
2022-10-22T22:23:17.244Z,100984.62
2022-10-22T22:26:28.735Z,101005.63
2022-10-22T22:29:32.940Z,100996.94
2022-10-22T22:32:35.730Z,101006.22
2022-10-22T22:38:48.412Z,101022.50
2022-10-22T22:41:51.787Z,101026.75
2022-10-22T22:44:55.243Z,101030.84
2022-10-22T22:47:58.210Z,101028.66
2022-10-22T22:51:04.664Z,101038.88
2022-10-22T22:54:10.097Z,101035.19
2022-10-22T22:57:14.274Z,101034.28
2022-10-22T23:00:21.207Z,101033.31
2022-10-22T23:03:24.206Z,101039.06
2022-10-22T23:06:29.647Z,101043.78
2022-10-22T23:09:32.618Z,101048.03
2022-10-22T23:12:36.561Z,101049.69
2022-10-22T23:15:40.525Z,101046.03
2022-10-22T23:18:46.354Z,101051.06
2022-10-22T23:21:51.735Z,101044.00
2022-10-22T23:24:54.825Z,101044.81
2022-10-22T23:27:57.538Z,101047.34
2022-10-22T23:31:05.109Z,101037.53
2022-10-22T23:34:08.524Z,101040.91
2022-10-22T23:37:12.309Z,101050.50
2022-10-22T23:40:14.884Z,101043.34
2022-10-22T23:43:17.559Z,101047.66
2022-10-22T23:46:20.155Z,101051.22
2022-10-22T23:49:23.567Z,101055.69
2022-10-22T23:52:26.554Z,101050.41
2022-10-22T23:55:29.713Z,101056.44
2022-10-22T23:58:34.178Z,101050.41
